Vremea mâine în Bicaz - Romania

Vrei sa afli care e starea vremii acum in Neamt - Romania? Dorim sa iti furnizam starea vremii pentru Neamt - Romania. Starea vremii Neamt - Romania pentru astazi.

Vremea mâine în Bicaz

Temperatura minimă:
6.1 °C

Temperatura maximă:
17.8 °C

Mâine va fi: Senin
Precipitații: 0 %
Umiditate: 62%
Viteza maximă vânt mâine:
11.9 km/h

Evoluția vremii in Bicaz pe ore mâine

Ora: 04:00
Temperatura: °C
Sansa de precipitatii: %
Ora Descriere Temp Se simte Precipitatii Umiditate Vant
00:00Senin7.3°0%87%WNW 4.3 KM/H
01:00Senin6.4°0%88%WNW 4.7 KM/H
02:00Senin6.7°6.1°0%88%W 4.7 KM/H
03:00Senin6.4°5.8°0%88%WNW 4.7 KM/H
04:00Senin6.3°5.7°0%87%WNW 4.7 KM/H
05:00Senin6.1°5.5°0%85%WNW 4.7 KM/H
06:00Senin6.1°5.3°0%82%WNW 5 KM/H
07:00Senin7.9°7.5°0%74%W 4.7 KM/H
08:00Senin10.6°10.6°0%60%WNW 2.9 KM/H
09:00Senin13.8°13.8°0%50%ENE 1.4 KM/H
10:00Senin15.2°15.2°0%43%E 6.1 KM/H
11:00Senin15.9°15.9°0%41%E 8.6 KM/H
12:00Senin16.6°16.7°0%39%E 10.4 KM/H
13:00Senin17.2°17.2°0%37%E 11.5 KM/H
14:00Senin17.6°17.7°0%35%E 11.9 KM/H
15:00Senin17.8°17.8°0%35%ESE 11.5 KM/H
16:00Senin17.8°17.8°0%35%E 10.1 KM/H
17:00Senin17.4°17.4°0%37%ESE 10.1 KM/H
18:00Senin16.6°16.6°0%40%ESE 10.4 KM/H
19:00Senin15.1°15.1°0%52%ESE 7.2 KM/H
20:00Senin12.6°12.7°0%67%ESE 5 KM/H
21:00Senin10°10.1°0%74%SE 4 KM/H
22:00Senin9.2°9.1°0%77%SSE 4.3 KM/H
23:00Senin8.7°8.2°0%79%S 5 KM/H




tutorials